Flight Track Log - Related Links

Times and Time Zones

All times are in EST time to prevent confusion due to time zone crossing. See the N789EX flight status page for this flight to view local times or setup timezone preferences in your user account.

Time Position Orientation Groundspeed Altitude Reporting Facility
EST Latitude Longitude Course Direction KTS MPH feet Rate Location/Type
Tue 12:13:29 PM 47.5066 -122.2820 147° Southeast 197 227 1,200  Level FlightAware ADS-B
Tue 12:13:45 PM 47.4930 -122.2690 147° Southeast 223 257 1,500 1,500 Climbing FlightAware ADS-B
Tue 12:14:01 PM 47.4796 -122.2550 145° Southeast 234 269 2,000 2,276 Climbing FlightAware ADS-B
Tue 12:14:14 PM 47.4676 -122.2440 148° Southeast 239 275 2,600 3,000 Climbing FlightAware ADS-B
Tue 12:14:17 PM 47.4647 -122.2410 145° Southeast 239 275 2,800 3,429 Climbing FlightAware ADS-B
Tue 12:14:21 PM 47.4613 -122.2370 142° Southeast 240 276 3,000 4,286 Climbing FlightAware ADS-B
Tue 12:14:24 PM 47.4585 -122.2320 130° Southeast 240 276 3,300 3,750 Climbing FlightAware ADS-B
Tue 12:14:29 PM 47.4558 -122.2270 129° Southeast 242 278 3,500 2,667 Climbing FlightAware ADS-B
Tue 12:14:33 PM 47.4536 -122.2200 115° Southeast 244 281 3,700 3,429 Climbing FlightAware ADS-B
Tue 12:14:36 PM 47.4522 -122.2150 112° Southeast 246 283 3,900 3,429 Climbing FlightAware ADS-B
Tue 12:14:40 PM 47.4507 -122.2090 110° East 248 285 4,100 2,700 Climbing FlightAware ADS-B
Tue 12:14:56 PM 47.4457 -122.1840 106° East 251 289 4,800 2,444 Climbing FlightAware ADS-B
Tue 12:15:07 PM 47.4422 -122.1660 106° East 248 285 5,200 1,667 Climbing FlightAware ADS-B
Tue 12:15:14 PM 47.4401 -122.1550 106° East 250 288 5,300 1,385 Climbing FlightAware ADS-B
Tue 12:15:20 PM 47.4386 -122.1440 101° East 252 290 5,500 3,000 Climbing FlightAware ADS-B
Tue 12:15:26 PM 47.4372 -122.1330 101° East 256 295 5,900 3,667 Climbing FlightAware ADS-B
Tue 12:15:38 PM 47.4354 -122.1110 97° East 266 306 6,600 3,391 Climbing FlightAware ADS-B
Tue 12:15:49 PM 47.4343 -122.0910 95° East 276 318 7,200 3,250 Climbing FlightAware ADS-B
Tue 12:16:02 PM 47.4335 -122.0670 93° East 288 331 7,900 3,643 Climbing FlightAware ADS-B
Tue 12:16:17 PM 47.4328 -122.0380 92° East 295 339 8,900 4,000 Climbing FlightAware ADS-B
Tue 12:16:32 PM 47.4324 -122.0060 91° East 302 348 9,900 3,867 Climbing FlightAware ADS-B
Tue 12:17:02 PM 47.4318 -121.9430 91° East 312 359 11,800 3,763 Climbing FlightAware ADS-B
Tue 12:17:31 PM 47.4315 -121.8820 90° East 320 368 13,600 3,600 Climbing FlightAware ADS-B
Tue 12:18:02 PM 47.4308 -121.8130 91° East 329 379 15,400 3,246 Climbing FlightAware ADS-B
Tue 12:18:32 PM 47.4299 -121.7440 91° East 342 394 16,900 2,906 Climbing FlightAware ADS-B
Tue 12:19:06 PM 47.4289 -121.6630 91° East 357 411 18,500 1,969 Climbing FlightAware ADS-B
Tue 12:19:36 PM 47.4279 -121.5860 91° East 397 457 19,000 732 Climbing FlightAware ADS-B
Tue 12:19:47 PM 47.4276 -121.5578 91° East 327 376 19,000  Level FlightAware ADS-B
Tue 12:20:06 PM 47.4267 -121.5000 91° East 440 506 19,000  Level FlightAware ADS-B
Tue 12:20:37 PM 47.4253 -121.4050 91° East 468 539 19,000 -492 Level FlightAware ADS-B
Tue 12:21:07 PM 47.4215 -121.3090 93° East 468 539 18,500 -1,100 Descending FlightAware ADS-B
Tue 12:21:37 PM 47.4158 -121.2140 95° East 462 532 17,900 -1,200 Descending FlightAware ADS-B
Tue 12:22:07 PM 47.4103 -121.1200 95° East 456 525 17,300 -1,770 Descending FlightAware ADS-B
Tue 12:22:38 PM 47.4047 -121.0270 95° East 443 510 16,100 -2,516 Descending FlightAware ADS-B
Tue 12:23:09 PM 47.3994 -120.9360 95° East 438 504 14,700 -1,672 Descending FlightAware ADS-B
Tue 12:23:39 PM 47.3940 -120.8440 95° East 441 507 14,400 -295 Descending FlightAware ADS-B
Tue 12:24:10 PM 47.3887 -120.7530 95° East 443 510 14,400  Level FlightAware ADS-B
Tue 12:24:42 PM 47.3832 -120.6580 95° East 439 505 14,400  Level FlightAware ADS-B
Tue 12:25:12 PM 47.3780 -120.5680 95° East 441 507 14,400 -600 Level FlightAware ADS-B
Tue 12:25:42 PM 47.3727 -120.4770 95° East 435 501 13,800 -1,816 Descending FlightAware ADS-B
Tue 12:26:28 PM 47.3644 -120.3472 95° East 435 501 12,100 -1,570 Descending Seattle Center
Tue 12:27:29 PM 47.3558 -120.2011 95° East 343 395 11,000 -541 Descending Seattle Center
Tue 12:28:30 PM 47.3478 -120.0786 95° East 303 349 11,000 -590 Level Seattle Center
Tue 12:29:31 PM 47.3419 -119.9586 94° East 297 342 9,800 -1,180 Descending Seattle Center
Tue 12:30:32 PM 47.3361 -119.8300 94° East 293 337 8,600 -1,033 Descending Seattle Center
Tue 12:31:33 PM 47.3314 -119.7308 94° East 288 331 7,700 -885 Descending Seattle Center
Tue 12:33:00 PM 47.2856 -119.5765 98° East  Level Estimated
Tue 12:40:00 PM 47.2000 -119.3167 104° East  Level FlightAware Approximate
Tue 12:41:00 PM 47.2086 -119.3191 104° East  Level Estimated
Tue 12:42:00 PM 47.2086 -119.3191 104° East  Level Estimated
Tue 12:43:00 PM 47.2086 -119.3191 104° East  Level Estimated
Tue 12:44:00 PM 47.2086 -119.3191 104° East  Level Estimated
Tue 12:45:00 PM 47.2086 -119.3191 104° East  Level Estimated
Tue 12:46:00 PM 47.2086 -119.3191 104° East  Level Estimated
Tue 12:47:00 PM 47.2086 -119.3191 104° East  Level Estimated
Tue 12:48:00 PM 47.2086 -119.3191 104° East  Level Estimated
Tue 12:49:00 PM 47.2086 -119.3191 104° East  Level Estimated
Tue 12:50:00 PM 47.2086 -119.3191 104° East  Level Estimated
Tue 12:51:00 PM 47.2086 -119.3191 104° East  Level Estimated
Tue 12:52:00 PM 47.2086 -119.3191 104° East  Level Estimated

Login

Don't have an account? Register now (free) for customized features, flight alerts, and more!